createdAt,value
2022-11-28T00:01:37.128Z,19.27
2022-11-28T00:04:07.302Z,18.57
2022-11-28T00:06:38.541Z,17.47
2022-11-28T00:09:07.384Z,16.00
2022-11-28T00:11:35.559Z,18.40
2022-11-28T00:14:03.752Z,17.13
2022-11-28T00:16:31.884Z,21.30
2022-11-28T00:19:02.015Z,17.43
2022-11-28T00:21:32.147Z,17.77
2022-11-28T00:24:01.693Z,19.43
2022-11-28T00:26:32.207Z,16.40
2022-11-28T00:29:00.727Z,18.83
2022-11-28T00:31:30.690Z,20.73
2022-11-28T00:33:58.985Z,19.63
2022-11-28T00:36:27.027Z,17.13
2022-11-28T00:38:56.563Z,25.10
2022-11-28T00:41:27.040Z,16.30
2022-11-28T00:43:55.404Z,17.43
2022-11-28T00:46:24.252Z,15.67
2022-11-28T00:48:52.816Z,18.97
2022-11-28T00:51:23.490Z,15.73
2022-11-28T00:53:53.348Z,18.30
2022-11-28T00:56:25.610Z,17.47
2022-11-28T00:58:53.875Z,17.23
2022-11-28T01:01:25.498Z,17.83
2022-11-28T01:03:55.155Z,17.43
2022-11-28T01:06:24.995Z,13.63
2022-11-28T01:08:53.579Z,15.87
2022-11-28T01:11:23.919Z,16.47
2022-11-28T01:13:54.425Z,18.60
2022-11-28T01:16:22.473Z,14.80
2022-11-28T01:18:50.577Z,20.90
2022-11-28T01:21:18.808Z,18.83
2022-11-28T01:23:47.101Z,19.77
2022-11-28T01:26:18.375Z,14.77
2022-11-28T01:28:48.172Z,18.40
2022-11-28T01:31:18.839Z,19.07
2022-11-28T01:33:46.921Z,19.83
2022-11-28T01:36:16.134Z,17.00
2022-11-28T01:38:44.548Z,18.13
2022-11-28T01:41:13.676Z,19.60
2022-11-28T01:43:59.746Z,22.53
2022-11-28T01:46:27.817Z,18.53
2022-11-28T01:48:58.645Z,19.90
2022-11-28T01:51:26.851Z,17.67
2022-11-28T01:53:55.745Z,20.30
2022-11-28T01:56:28.189Z,16.97
2022-11-28T01:59:01.982Z,16.30
2022-11-28T02:01:30.208Z,22.50
2022-11-28T02:03:59.767Z,18.20
2022-11-28T02:06:29.435Z,21.00
2022-11-28T02:08:58.943Z,18.97
2022-11-28T02:12:02.113Z,16.30
2022-11-28T02:15:07.203Z,17.37
2022-11-28T02:17:45.096Z,19.67
2022-11-28T02:20:48.657Z,15.93
2022-11-28T02:23:25.331Z,17.67
2022-11-28T02:26:11.917Z,17.83
2022-11-28T02:29:14.259Z,16.13
2022-11-28T02:32:17.999Z,18.53
2022-11-28T02:34:56.096Z,16.77
2022-11-28T02:37:31.150Z,19.00
2022-11-28T02:40:09.836Z,21.60
2022-11-28T02:42:46.519Z,17.63
2022-11-28T02:45:21.141Z,17.53
2022-11-28T02:47:55.637Z,17.87
2022-11-28T02:50:29.593Z,21.13
2022-11-28T02:53:03.453Z,19.57
2022-11-28T02:55:32.132Z,20.47
2022-11-28T02:58:00.166Z,22.50
2022-11-28T03:00:30.931Z,20.77
2022-11-28T03:03:25.133Z,19.30
2022-11-28T03:05:59.442Z,21.77
2022-11-28T03:08:38.140Z,20.13
2022-11-28T03:11:15.526Z,16.80
2022-11-28T03:13:53.813Z,21.13
2022-11-28T03:16:28.917Z,21.47
2022-11-28T03:19:07.124Z,23.33
2022-11-28T03:21:43.585Z,19.47
2022-11-28T03:24:17.936Z,27.00
2022-11-28T03:26:54.260Z,26.40
2022-11-28T03:29:26.833Z,26.90
2022-11-28T03:31:59.384Z,24.73
2022-11-28T03:34:34.130Z,26.07
2022-11-28T03:37:07.200Z,27.33
2022-11-28T03:39:39.254Z,24.73
2022-11-28T03:42:11.834Z,26.17
2022-11-28T03:44:44.145Z,27.63
2022-11-28T03:47:12.588Z,26.90
2022-11-28T03:49:46.190Z,27.17
2022-11-28T03:52:19.054Z,25.97
2022-11-28T03:54:51.983Z,27.47
2022-11-28T03:57:25.370Z,26.60
2022-11-28T03:59:55.199Z,25.20
2022-11-28T04:02:31.917Z,29.40
2022-11-28T04:05:06.212Z,31.33
2022-11-28T04:07:40.869Z,29.33
2022-11-28T04:10:14.572Z,27.97
2022-11-28T04:12:53.838Z,31.17
2022-11-28T04:15:30.362Z,25.77
2022-11-28T04:18:03.428Z,33.07
2022-11-28T04:20:40.252Z,34.07
2022-11-28T04:23:12.533Z,31.10
2022-11-28T04:25:45.663Z,32.37
2022-11-28T04:28:17.612Z,31.63
2022-11-28T04:30:47.360Z,31.60
2022-11-28T04:33:18.544Z,36.07
2022-11-28T04:35:51.506Z,32.80
2022-11-28T04:38:20.311Z,34.60
2022-11-28T04:40:52.089Z,31.83
2022-11-28T04:43:25.278Z,33.70
2022-11-28T04:45:59.473Z,33.63
2022-11-28T04:48:34.013Z,33.87
2022-11-28T04:51:14.229Z,38.87
2022-11-28T04:53:49.345Z,36.40
2022-11-28T04:56:22.999Z,37.20
2022-11-28T04:58:51.967Z,33.57
2022-11-28T05:01:22.921Z,31.87
2022-11-28T05:03:51.100Z,35.97
2022-11-28T05:06:31.995Z,38.50
2022-11-28T05:09:00.455Z,39.80
2022-11-28T05:11:29.247Z,32.20
2022-11-28T05:13:57.566Z,38.33
2022-11-28T05:16:25.643Z,40.83
2022-11-28T05:18:53.718Z,34.20
2022-11-28T05:21:21.739Z,36.13
2022-11-28T05:23:51.087Z,37.27
2022-11-28T05:26:21.126Z,37.40
2022-11-28T05:28:51.027Z,34.27
2022-11-28T05:31:20.825Z,38.83
2022-11-28T05:33:48.911Z,39.53
2022-11-28T05:36:18.061Z,38.90
2022-11-28T05:38:46.215Z,36.67
2022-11-28T05:41:22.231Z,39.40
2022-11-28T05:43:50.341Z,41.27
2022-11-28T05:46:18.717Z,40.10
2022-11-28T05:48:46.816Z,39.00
2022-11-28T05:51:14.976Z,39.40
2022-11-28T05:53:43.277Z,37.93
2022-11-28T05:56:13.768Z,34.10
2022-11-28T05:58:43.753Z,36.63
2022-11-28T06:01:13.454Z,33.67
2022-11-28T06:03:41.477Z,37.10
2022-11-28T06:06:17.853Z,38.10
2022-11-28T06:08:47.183Z,35.20
2022-11-28T06:11:16.436Z,31.17
2022-11-28T06:13:47.571Z,31.60
2022-11-28T06:16:18.298Z,29.57
2022-11-28T06:18:46.829Z,31.63
2022-11-28T06:21:16.285Z,32.27
2022-11-28T06:23:44.309Z,29.47
2022-11-28T06:26:14.231Z,28.93
2022-11-28T06:28:43.453Z,31.03
2022-11-28T06:31:15.113Z,27.60
2022-11-28T06:33:43.623Z,29.03
2022-11-28T06:36:13.228Z,26.93
2022-11-28T06:38:41.314Z,29.70
2022-11-28T06:41:12.462Z,25.60
2022-11-28T06:43:40.861Z,25.93
2022-11-28T06:46:16.206Z,27.33
2022-11-28T06:48:45.354Z,24.93
2022-11-28T06:51:14.196Z,27.17
2022-11-28T06:53:42.602Z,27.03
2022-11-28T06:56:13.964Z,27.70
2022-11-28T06:58:42.847Z,29.33
2022-11-28T07:01:15.110Z,28.73
2022-11-28T07:03:43.966Z,28.33
2022-11-28T07:06:12.831Z,25.77
2022-11-28T07:08:41.299Z,25.03
2022-11-28T07:11:13.157Z,26.30
2022-11-28T07:13:41.625Z,29.73
2022-11-28T07:16:14.184Z,24.00
2022-11-28T07:18:43.895Z,25.97
2022-11-28T07:21:14.174Z,23.33
2022-11-28T07:23:42.314Z,25.80
2022-11-28T07:26:12.794Z,25.73
2022-11-28T07:28:41.062Z,21.37
2022-11-28T07:31:11.717Z,27.67
2022-11-28T07:33:40.441Z,26.40
2022-11-28T07:36:13.993Z,25.40
2022-11-28T07:38:42.116Z,27.53
2022-11-28T07:41:12.107Z,29.63
2022-11-28T07:43:41.000Z,23.83
2022-11-28T07:46:12.192Z,26.87
2022-11-28T07:48:40.824Z,29.43
2022-11-28T07:51:12.488Z,25.40
2022-11-28T07:53:40.544Z,26.70
2022-11-28T07:56:12.992Z,26.87
2022-11-28T07:58:41.061Z,30.40
2022-11-28T08:01:12.560Z,29.83
2022-11-28T08:03:40.658Z,32.87
2022-11-28T08:06:10.248Z,27.63
2022-11-28T08:08:38.510Z,28.17
2022-11-28T08:11:08.987Z,26.90
2022-11-28T08:13:38.452Z,28.60
2022-11-28T08:16:07.511Z,29.37
2022-11-28T08:18:35.712Z,29.50
2022-11-28T08:21:09.890Z,30.00
2022-11-28T08:23:38.361Z,29.40
2022-11-28T08:26:08.536Z,33.17
2022-11-28T08:28:36.957Z,28.43
2022-11-28T08:31:10.571Z,26.27
2022-11-28T08:33:38.726Z,28.67
2022-11-28T08:36:07.506Z,31.60
2022-11-28T08:38:37.143Z,28.80
2022-11-28T08:41:06.731Z,30.97
2022-11-28T08:43:36.776Z,32.37
2022-11-28T08:46:05.414Z,27.20
2022-11-28T08:48:35.272Z,31.23
2022-11-28T08:51:03.463Z,25.13
2022-11-28T08:53:31.534Z,29.80
2022-11-28T08:56:01.233Z,26.60
2022-11-28T08:58:29.552Z,26.97
2022-11-28T09:00:57.649Z,28.47
2022-11-28T09:03:25.739Z,32.97
2022-11-28T09:05:53.835Z,29.43
2022-11-28T09:08:22.522Z,31.30
2022-11-28T09:10:50.490Z,29.47
2022-11-28T09:13:19.893Z,30.07
2022-11-28T09:15:52.536Z,30.17
2022-11-28T09:18:21.699Z,30.13
2022-11-28T09:20:49.700Z,26.83
2022-11-28T09:23:17.691Z,27.27
2022-11-28T09:25:45.691Z,24.90
2022-11-28T09:28:13.695Z,26.87
2022-11-28T09:30:43.125Z,25.80
2022-11-28T09:33:12.516Z,22.67
2022-11-28T09:35:40.682Z,24.60
2022-11-28T09:38:09.005Z,28.03
2022-11-28T09:40:39.860Z,24.30
2022-11-28T09:43:16.333Z,23.37
2022-11-28T09:45:46.950Z,26.67
2022-11-28T09:48:26.499Z,24.67
2022-11-28T09:50:58.628Z,25.37
2022-11-28T09:53:35.592Z,24.53
2022-11-28T09:56:09.993Z,22.43
2022-11-28T09:58:44.734Z,20.67
2022-11-28T10:01:21.942Z,22.53
2022-11-28T10:03:56.347Z,21.87
2022-11-28T10:06:29.831Z,25.33
2022-11-28T10:09:22.710Z,20.90
2022-11-28T10:12:05.857Z,25.23
2022-11-28T10:14:59.054Z,20.50
2022-11-28T10:17:39.697Z,26.77
2022-11-28T10:20:13.226Z,20.20
2022-11-28T10:22:47.079Z,22.47
2022-11-28T10:25:20.060Z,22.60
2022-11-28T10:27:48.773Z,22.10
2022-11-28T10:30:22.539Z,19.37
2022-11-28T10:33:00.259Z,24.27
2022-11-28T10:35:35.151Z,22.20
2022-11-28T10:38:03.410Z,25.87
2022-11-28T10:40:43.985Z,22.83
2022-11-28T10:43:25.362Z,22.93
2022-11-28T10:46:01.362Z,20.50
2022-11-28T10:48:41.897Z,19.70
2022-11-28T10:51:29.997Z,23.00
2022-11-28T10:54:10.355Z,24.97
2022-11-28T10:56:48.745Z,26.70
2022-11-28T10:59:29.363Z,22.87
2022-11-28T11:01:58.772Z,23.17
2022-11-28T11:04:29.173Z,22.60
2022-11-28T11:07:16.218Z,21.47
2022-11-28T11:09:47.568Z,21.17
2022-11-28T11:12:21.321Z,21.93
2022-11-28T11:14:49.510Z,24.03
2022-11-28T11:17:32.657Z,20.60
2022-11-28T11:20:37.566Z,21.80
2022-11-28T11:23:16.376Z,20.97
2022-11-28T11:25:50.672Z,21.30
2022-11-28T11:28:33.681Z,24.63
2022-11-28T11:31:03.218Z,19.77
2022-11-28T11:33:35.416Z,23.00
2022-11-28T11:36:07.075Z,18.93
2022-11-28T11:38:38.196Z,19.80
2022-11-28T11:41:27.915Z,19.13
2022-11-28T11:43:56.240Z,18.03
2022-11-28T11:46:24.305Z,16.07
2022-11-28T11:48:54.295Z,15.97
2022-11-28T11:51:26.090Z,18.87
2022-11-28T11:54:05.120Z,17.10
2022-11-28T11:56:37.568Z,19.53
2022-11-28T11:59:12.089Z,21.93
2022-11-28T12:01:41.567Z,16.23
2022-11-28T12:04:37.465Z,15.17
2022-11-28T12:07:16.567Z,19.43
2022-11-28T12:09:49.044Z,14.93
2022-11-28T12:12:19.561Z,19.30
2022-11-28T12:14:49.434Z,17.73
2022-11-28T12:20:45.626Z,20.30
2022-11-28T12:23:35.973Z,15.93
2022-11-28T12:26:15.481Z,27.43
2022-11-28T12:28:55.026Z,18.03
2022-11-28T12:31:36.457Z,16.07
2022-11-28T12:34:13.507Z,18.30
2022-11-28T12:36:47.922Z,16.63
2022-11-28T12:39:25.838Z,15.67
2022-11-28T12:42:20.886Z,16.67
2022-11-28T12:45:18.064Z,19.27
2022-11-28T12:47:55.702Z,21.00
2022-11-28T12:50:33.258Z,17.83
2022-11-28T12:53:15.658Z,20.83
2022-11-28T12:55:48.670Z,18.53
2022-11-28T12:58:24.439Z,21.73
2022-11-28T13:01:00.765Z,18.10
2022-11-28T13:03:42.207Z,21.20
2022-11-28T13:06:21.609Z,22.43
2022-11-28T13:08:58.691Z,22.73
2022-11-28T13:11:58.065Z,25.77
2022-11-28T13:14:35.242Z,26.67
2022-11-28T13:17:13.925Z,29.57
2022-11-28T13:19:52.251Z,33.70
2022-11-28T13:22:24.540Z,30.83
2022-11-28T13:25:03.254Z,30.20
2022-11-28T13:27:39.759Z,25.27
2022-11-28T13:30:20.242Z,29.13
2022-11-28T13:32:53.868Z,28.80
2022-11-28T13:35:22.431Z,25.83
2022-11-28T13:40:50.206Z,26.37
2022-11-28T13:43:28.411Z,24.00
2022-11-28T13:45:56.708Z,24.57
2022-11-28T13:51:41.714Z,24.87
2022-11-28T13:54:37.273Z,29.90
2022-11-28T13:57:10.960Z,24.03
2022-11-28T13:59:40.769Z,26.73
2022-11-28T14:02:21.897Z,28.73
2022-11-28T14:04:50.359Z,28.60
2022-11-28T14:07:27.495Z,27.40
2022-11-28T14:10:15.632Z,24.17
2022-11-28T14:12:52.243Z,26.07
2022-11-28T14:15:31.000Z,23.57
2022-11-28T14:18:47.869Z,25.70
2022-11-28T14:21:12.682Z,25.13
2022-11-28T14:23:48.673Z,30.70
2022-11-28T14:26:31.646Z,22.63
2022-11-28T14:29:00.485Z,23.50
2022-11-28T14:31:33.028Z,25.20
2022-11-28T14:34:03.758Z,23.97
2022-11-28T14:36:34.133Z,27.03
2022-11-28T14:39:06.159Z,26.17
2022-11-28T14:41:54.159Z,26.20
2022-11-28T14:44:50.603Z,25.97
2022-11-28T14:47:30.629Z,22.47
2022-11-28T14:50:31.969Z,25.53
2022-11-28T14:53:33.440Z,25.37
2022-11-28T14:56:12.292Z,21.97
2022-11-28T14:58:40.620Z,20.57
2022-11-28T15:01:14.515Z,19.67
2022-11-28T15:03:53.708Z,20.23
2022-11-28T15:06:25.970Z,20.43
2022-11-28T15:09:05.472Z,20.37
2022-11-28T15:12:07.978Z,26.60
2022-11-28T15:14:36.835Z,26.77
2022-11-28T15:17:07.009Z,23.77
2022-11-28T15:19:41.070Z,22.07
2022-11-28T15:22:30.072Z,23.80
2022-11-28T15:24:58.082Z,29.47
2022-11-28T15:27:28.335Z,26.93
2022-11-28T15:29:58.703Z,27.53
2022-11-28T15:32:28.865Z,36.07
2022-11-28T15:35:01.013Z,30.90
2022-11-28T15:37:32.005Z,39.33
2022-11-28T15:40:01.115Z,33.10
2022-11-28T15:42:32.333Z,32.03
2022-11-28T15:45:06.252Z,31.17
2022-11-28T15:47:34.250Z,31.23
2022-11-28T15:50:15.989Z,30.73
2022-11-28T15:52:54.234Z,28.47
2022-11-28T15:55:22.332Z,29.70
2022-11-28T15:57:50.304Z,30.77
2022-11-28T16:00:20.734Z,30.57
2022-11-28T16:02:49.650Z,28.87
2022-11-28T16:05:22.230Z,33.53
2022-11-28T16:07:52.108Z,32.47
2022-11-28T16:10:25.483Z,27.70
2022-11-28T16:13:00.859Z,29.17
2022-11-28T16:15:29.729Z,31.60
2022-11-28T16:17:57.996Z,28.13
2022-11-28T16:20:29.768Z,28.60
2022-11-28T16:23:02.467Z,29.73
2022-11-28T16:25:32.537Z,34.87
2022-11-28T16:28:00.954Z,30.37
2022-11-28T16:30:37.736Z,30.47
2022-11-28T16:33:35.907Z,29.97
2022-11-28T16:36:20.330Z,27.87
2022-11-28T16:38:49.921Z,29.27
2022-11-28T16:41:19.459Z,29.77
2022-11-28T16:43:51.013Z,29.97
2022-11-28T16:46:22.944Z,30.57
2022-11-28T16:48:55.534Z,28.40
2022-11-28T16:51:41.154Z,29.13
2022-11-28T16:54:39.108Z,32.53
2022-11-28T16:57:15.580Z,30.63
2022-11-28T16:59:45.388Z,34.27
2022-11-28T17:02:15.549Z,27.80
2022-11-28T17:04:44.141Z,30.73
2022-11-28T17:07:16.249Z,30.83
2022-11-28T17:09:45.612Z,32.80
2022-11-28T17:12:24.500Z,36.97
2022-11-28T17:14:52.498Z,36.73
2022-11-28T17:17:23.210Z,37.97
2022-11-28T17:19:51.281Z,36.10
2022-11-28T17:22:23.784Z,35.27
2022-11-28T17:24:54.333Z,34.97
2022-11-28T17:27:22.326Z,33.13
2022-11-28T17:29:50.271Z,40.57
2022-11-28T17:32:18.311Z,34.30
2022-11-28T17:34:46.926Z,36.33
2022-11-28T17:37:15.160Z,34.73
2022-11-28T17:40:04.548Z,36.03
2022-11-28T17:42:33.046Z,39.00
2022-11-28T17:45:01.063Z,39.50
2022-11-28T17:47:29.053Z,37.13
2022-11-28T17:49:57.090Z,39.50
2022-11-28T17:52:30.115Z,35.87
2022-11-28T17:55:07.005Z,41.93
2022-11-28T17:57:35.279Z,34.70
2022-11-28T18:00:04.595Z,38.80
2022-11-28T18:02:32.595Z,40.60
2022-11-28T18:05:00.859Z,40.20
2022-11-28T18:07:29.967Z,41.63
2022-11-28T18:09:59.338Z,38.50
2022-11-28T18:12:27.847Z,41.03
2022-11-28T18:14:55.825Z,38.00
2022-11-28T18:17:23.821Z,41.20
2022-11-28T18:19:57.135Z,41.53
2022-11-28T18:22:25.653Z,38.10
2022-11-28T18:24:54.101Z,36.83
2022-11-28T18:27:23.570Z,39.87
2022-11-28T18:29:51.548Z,40.83
2022-11-28T18:32:19.621Z,39.60
2022-11-28T18:34:48.412Z,37.83
2022-11-28T18:37:16.501Z,42.57
2022-11-28T18:39:44.698Z,36.87
2022-11-28T18:42:12.832Z,52.93
2022-11-28T18:44:42.244Z,39.83
2022-11-28T18:47:11.279Z,47.07
2022-11-28T18:49:39.340Z,40.97
2022-11-28T18:52:07.516Z,40.93
2022-11-28T18:54:35.568Z,43.77
2022-11-28T18:57:03.982Z,42.97
2022-11-28T18:59:31.957Z,41.23
2022-11-28T19:02:01.443Z,44.60
2022-11-28T19:04:29.564Z,42.23
2022-11-28T19:06:57.601Z,40.77
2022-11-28T19:09:25.575Z,46.47
2022-11-28T19:11:53.557Z,40.83
2022-11-28T19:14:22.162Z,41.80
2022-11-28T19:16:50.435Z,46.67
2022-11-28T19:19:19.920Z,42.80
2022-11-28T19:21:48.216Z,44.83
2022-11-28T19:24:16.265Z,44.83
2022-11-28T19:26:44.276Z,38.83
2022-11-28T19:29:12.792Z,41.27
2022-11-28T19:31:42.342Z,45.87
2022-11-28T19:34:14.756Z,43.53
2022-11-28T19:36:46.249Z,47.93
2022-11-28T19:39:18.038Z,41.03
2022-11-28T19:41:46.822Z,39.93
2022-11-28T19:44:15.978Z,38.63
2022-11-28T19:46:44.346Z,47.57
2022-11-28T19:49:18.112Z,44.47
2022-11-28T19:51:47.970Z,47.13
2022-11-28T19:54:16.173Z,45.67
2022-11-28T19:56:44.348Z,44.17
2022-11-28T19:59:13.069Z,45.53
2022-11-28T20:01:41.343Z,47.97
2022-11-28T20:04:09.849Z,42.70
2022-11-28T20:06:37.828Z,46.17
2022-11-28T20:09:09.857Z,48.00
2022-11-28T20:11:39.381Z,45.43
2022-11-28T20:14:11.137Z,44.20
2022-11-28T20:16:39.414Z,45.80
2022-11-28T20:19:08.296Z,43.90
2022-11-28T20:21:37.947Z,45.33
2022-11-28T20:24:08.272Z,44.13
2022-11-28T20:26:38.319Z,45.13
2022-11-28T20:29:06.444Z,43.97
2022-11-28T20:31:36.876Z,40.97
2022-11-28T20:34:06.048Z,47.53
2022-11-28T20:36:36.249Z,43.80
2022-11-28T20:39:05.637Z,47.20
2022-11-28T20:41:35.192Z,45.90
2022-11-28T20:44:03.179Z,40.73
2022-11-28T20:46:33.619Z,44.87
2022-11-28T20:49:03.925Z,45.33
2022-11-28T20:51:33.935Z,44.17
2022-11-28T20:54:02.356Z,44.63
2022-11-28T20:56:31.794Z,43.97
2022-11-28T20:59:02.131Z,43.17
2022-11-28T21:01:33.201Z,45.80
2022-11-28T21:04:01.709Z,41.17
2022-11-28T21:06:30.287Z,50.00
2022-11-28T21:08:58.366Z,40.37
2022-11-28T21:14:16.503Z,43.07
2022-11-28T21:16:44.541Z,48.10
2022-11-28T21:19:12.692Z,44.37
2022-11-28T21:21:42.805Z,41.93
2022-11-28T21:24:13.785Z,44.13
2022-11-28T21:26:48.071Z,50.93
2022-11-28T21:29:20.549Z,42.00
2022-11-28T21:31:48.745Z,43.13
2022-11-28T21:34:18.993Z,46.57
2022-11-28T21:36:47.113Z,39.73
2022-11-28T21:39:16.825Z,40.77
2022-11-28T21:41:44.883Z,39.07
2022-11-28T21:44:12.884Z,44.60
2022-11-28T21:46:42.318Z,39.30
2022-11-28T21:49:10.370Z,44.63
2022-11-28T21:51:38.329Z,38.83
2022-11-28T21:54:06.460Z,36.07
2022-11-28T21:56:34.433Z,46.10
2022-11-28T21:59:02.720Z,42.93
2022-11-28T22:01:30.837Z,43.73
2022-11-28T22:04:02.665Z,39.47
2022-11-28T22:06:31.457Z,35.80
2022-11-28T22:09:03.306Z,38.10
2022-11-28T22:11:35.527Z,39.67
2022-11-28T22:14:03.507Z,45.67
2022-11-28T22:16:31.634Z,44.70
2022-11-28T22:19:01.931Z,41.37
2022-11-28T22:24:18.069Z,41.67
2022-11-28T22:26:46.079Z,37.33
2022-11-28T22:29:14.177Z,36.67
2022-11-28T22:31:42.204Z,38.53
2022-11-28T22:34:11.620Z,36.90
2022-11-28T22:36:39.732Z,35.93
2022-11-28T22:39:07.758Z,39.70
2022-11-28T22:41:35.726Z,38.30
2022-11-28T22:44:04.724Z,39.50
2022-11-28T22:46:33.420Z,37.30
2022-11-28T22:49:02.304Z,36.93
2022-11-28T22:51:32.517Z,39.70
2022-11-28T22:54:02.122Z,38.07
2022-11-28T22:56:31.613Z,38.60
2022-11-28T22:59:00.114Z,42.53
2022-11-28T23:01:30.134Z,43.97
2022-11-28T23:03:58.141Z,41.70
2022-11-28T23:06:28.862Z,41.53
2022-11-28T23:08:59.171Z,46.07
2022-11-28T23:11:30.368Z,39.03
2022-11-28T23:13:58.348Z,37.70
2022-11-28T23:16:28.224Z,39.37
2022-11-28T23:18:57.901Z,42.97
2022-11-28T23:21:27.017Z,41.63
2022-11-28T23:23:55.348Z,39.53
2022-11-28T23:26:26.213Z,36.40
2022-11-28T23:28:55.085Z,38.57
2022-11-28T23:31:24.804Z,38.60
2022-11-28T23:33:53.589Z,43.10
2022-11-28T23:36:24.741Z,39.90
2022-11-28T23:38:54.976Z,47.23
2022-11-28T23:41:24.312Z,40.43
2022-11-28T23:43:52.969Z,46.70
2022-11-28T23:46:22.118Z,41.80
2022-11-28T23:48:50.176Z,36.93
2022-11-28T23:51:20.607Z,38.90
2022-11-28T23:53:48.773Z,39.17
2022-11-28T23:56:19.994Z,39.30
2022-11-28T23:58:49.421Z,40.77
